Churchville, Iowa
Current Conditions -  °F | °C
As of 1:54 PM on Thursday 18 Dec 2014 (Local Time) from KDSM Reporting Station
Light Snow Light Snow  
Wind Chill: 31°   Ceiling: 5000
Heat Index: 31°   Visibility: 9mi
Dew Point: 20°   Wind: 0mph
Humidity: 64%   Direction: NA
Pressure: 30.23"   Gusts: NA
Location:  41.4552°N, 93.6809°W
Report Text: KDSM 181954Z 00000KT 9SM -SN FEW030 SCT042 OVC050 M01/M07 A3023 RMK AO2 SLP249 P0000 T10061067
Loading
Personal Weather Stations






























Interactive Weather Map New forecast layout! Learn more

10-Day Weather Forecast

Advertisements
Track Severe Weather on mobile